Time;durP1;ratioP1;P1;durP2;ratioP2;P2;SDS_P1;SDS_P2;PMS_P1;PMS_P2;Temp;Humidity;BMP_temperature;BMP_pressure;BME280_temperature;BME280_humidity;BME280_pressure;Samples;Min_cycle;Max_cycle;Signal;HPM_P1;HPM_P2
2024/01/25 00:07:19;;;;;;;20.58;4.25;;;8.80;1.00;;;;;;20661384;28;20062;-39
2024/01/25 00:17:19;;;;;;;30.63;6.22;;;8.50;1.00;;;;;;20680363;28;20092;-39
2024/01/25 00:27:20;;;;;;;27.35;4.13;;;8.50;1.00;;;;;;20677350;28;20065;-39
2024/01/25 00:37:21;;;;;;;23.48;4.22;;;8.40;1.00;;;;;;20677533;28;20035;-40
2024/01/25 00:47:22;;;;;;;34.53;5.32;;;8.20;1.00;;;;;;20673835;28;20038;-39
2024/01/25 00:57:23;;;;;;;26.67;3.78;;;8.10;1.00;;;;;;20672143;28;20046;-39
2024/01/25 01:07:24;;;;;;;26.02;3.80;;;8.00;1.00;;;;;;20673125;28;20080;-39
2024/01/25 01:17:24;;;;;;;20.27;3.65;;;7.90;1.00;;;;;;20672570;28;20042;-40
2024/01/25 01:27:25;;;;;;;30.83;4.03;;;7.70;1.00;;;;;;20677539;28;20402;-40
2024/01/25 01:37:26;;;;;;;18.53;3.43;;;7.60;1.00;;;;;;20674606;28;20038;-40
2024/01/25 01:47:26;;;;;;;22.40;3.65;;;7.40;1.00;;;;;;20672405;28;20041;-40
2024/01/25 01:57:27;;;;;;;19.67;3.22;;;7.00;1.00;;;;;;20671671;28;20077;-40
2024/01/25 02:07:30;;;;;;;20.58;3.08;;;6.70;6.90;;;;;;20670723;28;20049;-39
2024/01/25 02:17:30;;;;;;;20.98;2.92;;;6.30;8.90;;;;;;20671801;28;20041;-39
2024/01/25 02:27:31;;;;;;;20.00;2.40;;;6.00;11.40;;;;;;20684884;28;20038;-39
2024/01/25 02:37:32;;;;;;;16.03;2.87;;;5.80;12.00;;;;;;20686938;28;20511;-40
2024/01/25 02:47:32;;;;;;;20.80;3.08;;;5.60;13.50;;;;;;20687850;28;21205;-39
2024/01/25 02:57:33;;;;;;;21.63;3.28;;;5.40;16.50;;;;;;20684303;28;20513;-39
2024/01/25 03:07:34;;;;;;;20.45;3.08;;;5.30;19.10;;;;;;20686414;28;20494;-39
2024/01/25 03:17:34;;;;;;;23.13;3.10;;;5.10;19.70;;;;;;20687930;28;20038;-39
2024/01/25 03:27:35;;;;;;;15.35;2.95;;;4.90;23.90;;;;;;20692027;28;20653;-39
2024/01/25 03:37:36;;;;;;;14.27;2.77;;;4.80;24.40;;;;;;20688289;28;20034;-38
2024/01/25 03:47:36;;;;;;;20.00;3.33;;;4.70;22.50;;;;;;20692558;28;20081;-39
2024/01/25 03:57:39;;;;;;;17.88;2.90;;;4.60;25.30;;;;;;20694773;28;20050;-39
2024/01/25 04:07:40;;;;;;;20.48;3.30;;;4.50;29.40;;;;;;20690156;28;20036;-39
2024/01/25 04:17:41;;;;;;;12.75;2.42;;;4.40;25.50;;;;;;20685587;28;20042;-40
2024/01/25 04:27:42;;;;;;;17.67;2.80;;;4.30;30.10;;;;;;20687737;28;20030;-40
2024/01/25 04:37:42;;;;;;;19.88;2.65;;;4.30;34.50;;;;;;20689940;28;20045;-40
2024/01/25 04:47:46;;;;;;;17.75;2.50;;;4.10;35.50;;;;;;20686062;28;20045;-39
2024/01/25 04:57:47;;;;;;;16.45;3.08;;;4.10;31.20;;;;;;20686691;28;20046;-40
2024/01/25 05:07:48;;;;;;;23.80;4.85;;;4.00;38.10;;;;;;20681896;28;20038;-40
2024/01/25 05:17:49;;;;;;;17.50;3.28;;;3.90;38.90;;;;;;20681627;28;20052;-40
2024/01/25 05:27:50;;;;;;;14.48;3.03;;;3.80;44.30;;;;;;20679241;28;20045;-40
2024/01/25 05:37:50;;;;;;;16.55;4.07;;;3.90;57.30;;;;;;20683284;28;20093;-40
2024/01/25 05:47:51;;;;;;;25.90;4.10;;;3.90;57.50;;;;;;20686007;28;20037;-40
2024/01/25 05:57:52;;;;;;;17.80;3.40;;;4.20;90.90;;;;;;20684139;28;20073;-40
2024/01/25 06:07:52;;;;;;;26.17;3.83;;;4.30;93.40;;;;;;20685431;28;20486;-40
2024/01/25 06:17:53;;;;;;;22.13;4.40;;;4.40;99.90;;;;;;20682146;28;20096;-39
2024/01/25 06:27:54;;;;;;;21.85;3.47;;;4.50;99.90;;;;;;20680042;28;20045;-40
2024/01/25 06:37:55;;;;;;;20.05;3.72;;;4.40;99.90;;;;;;20677260;28;20046;-40
2024/01/25 06:47:55;;;;;;;35.92;4.22;;;4.20;99.90;;;;;;20683552;28;20184;-40
2024/01/25 06:57:58;;;;;;;22.70;4.20;;;4.20;99.90;;;;;;20676053;28;20069;-39
2024/01/25 07:07:59;;;;;;;21.85;3.90;;;4.00;99.50;;;;;;20686540;28;20030;-38
2024/01/25 07:18:00;;;;;;;28.52;5.32;;;3.90;99.20;;;;;;20691240;28;20042;-39
2024/01/25 07:28:00;;;;;;;39.80;14.53;;;4.00;99.90;;;;;;20688124;28;20124;-39
2024/01/25 07:38:02;;;;;;;37.55;16.08;;;4.30;99.90;;;;;;20684291;28;20528;-39
2024/01/25 07:48:03;;;;;;;32.17;13.52;;;4.50;99.90;;;;;;20689938;28;20120;-39
2024/01/25 07:58:03;;;;;;;27.15;8.57;;;4.50;99.90;;;;;;20689204;28;20042;-39
2024/01/25 08:08:04;;;;;;;28.98;7.10;;;4.50;99.90;;;;;;20691885;28;20039;-40
2024/01/25 08:18:05;;;;;;;32.42;5.55;;;4.90;99.90;;;;;;20679001;28;20041;-37
2024/01/25 08:28:06;;;;;;;25.02;5.13;;;4.90;99.90;;;;;;20687923;28;20046;-38
2024/01/25 08:38:07;;;;;;;27.15;4.70;;;5.00;99.90;;;;;;20687889;28;20163;-39
2024/01/25 08:48:08;;;;;;;25.95;5.38;;;5.10;99.90;;;;;;20691059;28;20327;-41
2024/01/25 08:58:09;;;;;;;32.65;5.55;;;5.10;99.90;;;;;;20685927;28;20501;-39
2024/01/25 09:08:11;;;;;;;25.40;5.35;;;5.30;99.90;;;;;;20679476;28;20463;-39
2024/01/25 09:18:11;;;;;;;26.88;4.75;;;5.50;99.90;;;;;;20673298;28;20041;-39
2024/01/25 09:28:12;;;;;;;29.98;5.70;;;5.60;99.90;;;;;;20679487;28;20036;-39
2024/01/25 09:38:13;;;;;;;29.83;5.13;;;5.90;99.90;;;;;;20672310;28;20044;-39
2024/01/25 09:48:17;;;;;;;23.67;5.35;;;6.00;99.90;;;;;;20677397;28;20038;-39
2024/01/25 09:58:19;;;;;;;27.13;5.22;;;6.20;99.90;;;;;;20678264;28;20042;-39
2024/01/25 10:08:23;;;;;;;34.05;6.05;;;6.40;99.90;;;;;;20673342;28;20403;-39
2024/01/25 10:18:25;;;;;;;30.27;6.43;;;6.50;99.90;;;;;;20673563;28;20050;-39
2024/01/25 10:28:28;;;;;;;25.70;6.00;;;6.60;99.90;;;;;;20667215;28;20069;-39
2024/01/25 10:38:34;;;;;;;23.88;4.97;;;6.70;99.90;;;;;;20665322;28;20076;-38
2024/01/25 10:48:36;;;;;;;25.67;6.77;;;6.80;99.90;;;;;;20682760;28;20512;-39
2024/01/25 10:58:41;;;;;;;25.95;5.55;;;7.10;99.90;;;;;;20682709;28;20112;-39
2024/01/25 11:08:41;;;;;;;23.98;6.07;;;7.10;99.90;;;;;;20686133;28;20489;-39
2024/01/25 11:18:54;;;;;;;24.33;5.88;;;7.20;99.90;;;;;;20678189;28;20598;-39
2024/01/25 11:28:55;;;;;;;33.10;6.78;;;7.30;99.90;;;;;;20680620;28;20422;-39
2024/01/25 11:38:57;;;;;;;26.08;7.30;;;7.30;99.90;;;;;;20684811;28;20607;-39
2024/01/25 11:49:00;;;;;;;36.03;7.20;;;7.50;99.90;;;;;;20682000;28;20031;-39
2024/01/25 11:59:02;;;;;;;36.55;8.80;;;7.70;99.90;;;;;;20681360;28;20132;-39
2024/01/25 12:09:10;;;;;;;32.10;8.30;;;7.80;89.60;;;;;;20682317;28;20132;-39
2024/01/25 12:19:10;;;;;;;32.53;9.05;;;8.00;80.40;;;;;;20676642;28;20414;-39
2024/01/25 12:29:11;;;;;;;37.60;9.50;;;8.00;62.00;;;;;;20673070;28;20053;-39
2024/01/25 12:39:14;;;;;;;44.13;10.90;;;8.10;64.80;;;;;;20678906;28;20034;-39
2024/01/25 12:49:15;;;;;;;28.33;8.30;;;8.10;54.70;;;;;;20677283;28;20547;-39
2024/01/25 12:59:15;;;;;;;32.80;8.77;;;8.20;47.80;;;;;;20675004;28;20092;-39
2024/01/25 13:09:16;;;;;;;29.27;8.77;;;8.30;32.40;;;;;;20670815;28;20645;-39
2024/01/25 13:19:17;;;;;;;33.83;8.82;;;8.20;34.60;;;;;;20671206;28;20034;-39
2024/01/25 13:29:17;;;;;;;32.95;7.47;;;8.30;37.20;;;;;;20671990;28;20379;-39
2024/01/25 13:39:18;;;;;;;39.08;8.68;;;8.30;27.40;;;;;;20669139;28;20038;-39
2024/01/25 13:49:18;;;;;;;37.73;11.87;;;8.40;25.80;;;;;;20665092;28;20441;-39
2024/01/25 13:59:19;;;;;;;31.92;8.15;;;8.40;22.10;;;;;;20668309;28;20092;-39
2024/01/25 14:09:20;;;;;;;41.60;8.38;;;8.50;24.00;;;;;;20673004;28;20494;-39
2024/01/25 14:19:20;;;;;;;45.45;9.55;;;8.40;34.70;;;;;;20677146;28;20037;-39
2024/01/25 14:29:21;;;;;;;35.67;8.80;;;8.60;34.30;;;;;;20687588;28;20065;-39
2024/01/25 14:39:21;;;;;;;30.98;8.73;;;8.70;33.00;;;;;;20678361;28;20829;-39
2024/01/25 14:49:23;;;;;;;39.05;8.57;;;8.70;35.80;;;;;;20685715;28;20022;-39
2024/01/25 14:59:25;;;;;;;38.67;9.40;;;8.80;46.40;;;;;;20689061;28;20056;-39
2024/01/25 15:09:25;;;;;;;35.45;9.13;;;8.80;61.40;;;;;;20684140;28;20043;-39
2024/01/25 15:19:26;;;;;;;44.00;12.07;;;8.80;82.20;;;;;;20682654;28;20046;-39
2024/01/25 15:29:27;;;;;;;41.15;12.57;;;8.90;75.80;;;;;;20681811;28;20034;-39
2024/01/25 15:39:28;;;;;;;33.03;11.77;;;8.80;91.50;;;;;;20671817;28;20050;-39
2024/01/25 15:49:28;;;;;;;49.30;15.43;;;8.70;99.90;;;;;;20678032;28;20501;-39
2024/01/25 15:59:29;;;;;;;39.70;15.43;;;8.80;99.90;;;;;;20681159;28;20124;-39
2024/01/25 16:09:29;;;;;;;39.08;16.00;;;8.70;99.90;;;;;;20678717;28;20394;-39
2024/01/25 16:19:30;;;;;;;46.50;17.35;;;8.60;99.90;;;;;;20679374;28;20038;-39
2024/01/25 16:29:31;;;;;;;49.00;19.40;;;8.60;99.90;;;;;;20672432;28;20133;-39
2024/01/25 16:39:31;;;;;;;50.83;19.13;;;8.60;99.90;;;;;;20673769;28;20405;-39
2024/01/25 16:49:32;;;;;;;51.63;21.17;;;8.60;99.90;;;;;;20674881;28;20049;-39
2024/01/25 16:59:33;;;;;;;58.15;21.38;;;8.50;99.90;;;;;;20679607;28;20049;-39
2024/01/25 17:09:34;;;;;;;59.75;22.67;;;8.60;99.90;;;;;;20674718;28;20034;-39
2024/01/25 17:19:35;;;;;;;62.67;23.23;;;8.60;99.90;;;;;;20679775;28;20040;-39
2024/01/25 17:29:36;;;;;;;50.67;22.20;;;8.60;99.90;;;;;;20678250;28;20513;-39
2024/01/25 17:39:37;;;;;;;51.33;20.50;;;8.60;99.90;;;;;;20673335;28;20461;-39
2024/01/25 17:49:37;;;;;;;54.80;21.48;;;8.60;99.90;;;;;;20677252;28;20045;-39
2024/01/25 17:59:38;;;;;;;59.65;23.25;;;8.60;99.90;;;;;;20669363;28;20490;-39
2024/01/25 18:09:39;;;;;;;60.00;25.10;;;8.70;99.90;;;;;;20670553;28;20073;-40
2024/01/25 18:19:39;;;;;;;55.95;24.50;;;8.80;99.90;;;;;;20668794;28;20405;-38
2024/01/25 18:29:40;;;;;;;64.07;24.90;;;8.90;99.90;;;;;;20671995;28;20041;-39
2024/01/25 18:39:41;;;;;;;59.35;25.90;;;8.90;99.90;;;;;;20662020;28;20521;-39
2024/01/25 18:49:41;;;;;;;66.13;27.67;;;9.00;99.90;;;;;;20667884;28;20527;-39
2024/01/25 18:59:42;;;;;;;65.65;27.83;;;9.10;99.90;;;;;;20668675;28;20047;-39
2024/01/25 19:09:43;;;;;;;62.13;28.58;;;9.20;99.90;;;;;;20678980;28;20479;-39
2024/01/25 19:19:44;;;;;;;61.63;28.80;;;9.20;99.90;;;;;;20684328;28;20489;-39
2024/01/25 19:29:45;;;;;;;61.72;27.83;;;9.30;99.90;;;;;;20679740;28;20038;-39
2024/01/25 19:39:45;;;;;;;57.00;27.92;;;9.40;99.90;;;;;;20678469;28;20191;-39
2024/01/25 19:49:46;;;;;;;54.83;26.75;;;9.40;99.90;;;;;;20677464;28;20030;-39
2024/01/25 19:59:47;;;;;;;54.28;28.83;;;9.40;99.90;;;;;;20677197;28;20541;-39
2024/01/25 20:09:48;;;;;;;58.88;28.83;;;9.50;99.90;;;;;;20678938;28;20053;-39
2024/01/25 20:19:49;;;;;;;59.15;28.58;;;9.60;99.90;;;;;;20678356;28;20405;-39
2024/01/25 20:29:50;;;;;;;52.22;28.65;;;9.70;99.90;;;;;;20671105;28;20042;-39
2024/01/25 20:39:51;;;;;;;55.15;27.80;;;9.80;99.90;;;;;;20675158;28;20038;-39
2024/01/25 20:49:52;;;;;;;49.92;27.92;;;9.80;99.90;;;;;;20675136;28;20121;-39
2024/01/25 20:59:52;;;;;;;48.15;25.40;;;9.90;99.90;;;;;;20674696;28;20038;-39
2024/01/25 21:09:53;;;;;;;44.72;24.00;;;9.90;99.90;;;;;;20673729;28;20029;-39
2024/01/25 21:19:54;;;;;;;47.45;25.52;;;10.10;99.90;;;;;;20672827;28;20045;-39
2024/01/25 21:29:57;;;;;;;45.67;24.92;;;10.10;99.90;;;;;;20672650;28;20038;-39
2024/01/25 21:39:58;;;;;;;50.00;24.58;;;10.10;99.90;;;;;;20667279;28;20161;-39
2024/01/25 21:49:58;;;;;;;41.65;23.92;;;10.10;99.90;;;;;;20669331;28;20165;-39
2024/01/25 22:00:00;;;;;;;46.17;23.42;;;10.20;99.90;;;;;;20669102;28;20041;-39
2024/01/25 22:10:00;;;;;;;43.47;23.92;;;10.20;99.90;;;;;;20667363;28;20062;-39
2024/01/25 22:20:01;;;;;;;42.83;22.83;;;10.20;99.90;;;;;;20667638;28;20034;-40
2024/01/25 22:30:02;;;;;;;41.13;22.20;;;10.30;99.90;;;;;;20668671;28;20042;-39
2024/01/25 22:40:03;;;;;;;41.65;22.67;;;10.10;99.90;;;;;;20672213;28;20057;-39
2024/01/25 22:50:04;;;;;;;48.30;23.85;;;10.10;99.90;;;;;;20685329;28;20046;-39
2024/01/25 23:00:08;;;;;;;44.08;23.63;;;10.10;99.90;;;;;;20686864;28;20045;-40
2024/01/25 23:10:09;;;;;;;41.83;23.13;;;10.10;99.90;;;;;;20682567;28;20045;-39
2024/01/25 23:20:11;;;;;;;41.83;21.83;;;10.10;99.90;;;;;;20677226;28;20091;-40
2024/01/25 23:30:12;;;;;;;36.25;20.33;;;10.20;99.90;;;;;;20678652;28;20038;-40
2024/01/25 23:40:15;;;;;;;30.27;18.10;;;10.20;99.90;;;;;;20677677;28;20065;-39
2024/01/25 23:50:15;;;;;;;36.78;17.80;;;10.10;99.90;;;;;;20674414;28;20813;-39
